Overseas Luzon — V7NE5 — position and weather

sailwx.info

Track history (hours):
 
Tides and Currents Weather Stations Pressure Air Temp Water Temp Dewpoint Dewpoint Depression Visibility Wind Speed Wind Dir Waves Ship Positions

Overseas Luzon

Last reported at 2014-Aug-25 06:33 UTC. Time now 2014-Sep-23 22:21 UTC.
Position N 26°20' W 116°40'.
Warning: this ship's position is 29 days out of date.

Length 228 m; draft 8.2 m.

Type: Tanker. MMSI: 538002946.

Date/timePositionNaut miles runAvg speedWind from/ knotsBaromVisibWave heightAir tempDewpointWater temp
2014-Aug-25 06:33N 26°20' W 116°40'42812.9
2014-Aug-23 21:28N 31°01' W 122°47'2513.0
2014-Aug-23 19:33N 31°18' W 123°09'35311.6
2014-Aug-22 13:07N 37°11' W 123°16'2112.7
2014-Aug-22 11:28N 37°31' W 123°07'1212.6
2014-Aug-22 10:33N 37°38' W 122°56'1110.1
2014-Aug-22 09:28N 37°44' W 122°44'1111.8
2014-Aug-22 08:33N 37°48' W 122°32'9 9.2
2014-Aug-22 07:33N 37°44' W 122°21'0 0.2
2014-Aug-22 06:28N 37°44' W 122°21'0 0.1
2014-Aug-22 05:31N 37°44' W 122°21'0 0.1
2014-Aug-22 04:31N 37°44' W 122°21'2 2.4
2014-Aug-22 03:33N 37°46' W 122°21'9 9.2
2014-Aug-22 02:33N 37°55' W 122°25'0 0.1
2014-Aug-22 01:22N 37°55' W 122°25'0 0.0
2014-Aug-21 23:28N 37°55' W 122°25'0 0.0
2014-Aug-21 22:16N 37°55' W 122°25'0 0.0
2014-Aug-21 21:28N 37°55' W 122°25'0 0.0
2014-Aug-21 20:04N 37°55' W 122°25'0 0.0
2014-Aug-21 18:16N 37°55' W 122°25'0 0.0
2014-Aug-21 17:10N 37°55' W 122°25'0 0.0
2014-Aug-21 14:28N 37°55' W 122°25'0 0.0
2014-Aug-21 12:22N 37°55' W 122°25'0 0.0
2014-Aug-21 11:28N 37°55' W 122°25'0 0.0
2014-Aug-21 10:28N 37°55' W 122°25'0 0.0
2014-Aug-20 20:28N 37°55' W 122°25'0 0.0
2014-Aug-20 17:16N 37°55' W 122°25'0 0.0
2014-Aug-20 16:28N 37°55' W 122°25'0 0.0
2014-Aug-20 12:28N 37°55' W 122°25'0 0.0
2014-Aug-19 17:07N 37°55' W 122°25'0 0.0
2014-Aug-19 16:31N 37°55' W 122°25'0 0.0
2014-Aug-19 15:31N 37°55' W 122°25'0 0.0
2014-Aug-19 14:19N 37°55' W 122°25'0 0.0
2014-Aug-19 13:25N 37°55' W 122°25'0 0.0
2014-Aug-19 12:31N 37°55' W 122°25'0 0.0
2014-Aug-19 11:31N 37°55' W 122°25'0 0.0
2014-Aug-19 10:19N 37°55' W 122°25'0 0.0
2014-Aug-19 09:25N 37°55' W 122°25'0 0.0
2014-Aug-19 08:25N 37°55' W 122°25'0 0.0
2014-Aug-19 07:31N 37°55' W 122°25'0 0.0
2014-Aug-19 06:31N 37°55' W 122°25'0 0.0
2014-Aug-19 05:28N 37°55' W 122°25'0 0.0
2014-Aug-19 04:31N 37°55' W 122°25'0 0.0
2014-Aug-19 03:31N 37°55' W 122°25'0 0.0
2014-Aug-19 02:31N 37°55' W 122°25'0 0.0
2014-Aug-19 01:25N 37°55' W 122°25'0 0.0
2014-Aug-19 00:28N 37°55' W 122°25'0 0.0
2014-Aug-18 23:25N 37°55' W 122°25'0 0.0
2014-Aug-18 22:25N 37°55' W 122°25'0 0.0
2014-Aug-18 21:22N 37°55' W 122°25'0 0.0
2014-Aug-18 20:31N 37°55' W 122°25'0 0.0
2014-Aug-18 19:25N 37°55' W 122°25'0 0.0
2014-Aug-18 18:25N 37°55' W 122°25'0 0.0
2014-Aug-18 17:19N 37°55' W 122°25'0 0.0
2014-Aug-18 16:31N 37°55' W 122°25'0 0.0
2014-Aug-18 15:31N 37°55' W 122°25'0 0.0
2014-Aug-18 14:31N 37°55' W 122°25'0 0.0
2014-Aug-18 13:31N 37°55' W 122°25'0 0.0
2014-Aug-18 12:28N 37°55' W 122°25'0 0.0
2014-Aug-18 11:31N 37°55' W 122°25'0 0.0
2014-Aug-18 10:28N 37°55' W 122°25'0 0.0
2014-Aug-18 09:28N 37°55' W 122°25'0 0.0
2014-Aug-18 08:28N 37°55' W 122°25'0 0.0
2014-Aug-18 07:31N 37°55' W 122°25'0 0.0
2014-Aug-18 06:28N 37°55' W 122°25'0 0.0
2014-Aug-18 05:31N 37°55' W 122°25'0 0.0
2014-Aug-18 04:31N 37°55' W 122°25'0 0.0
2014-Aug-18 03:28N 37°55' W 122°25'0 0.0
2014-Aug-18 02:31N 37°55' W 122°25'0 0.0
2014-Aug-18 01:31N 37°55' W 122°25'0 0.0
2014-Aug-18 00:04N 37°55' W 122°25'11 2.1
2014-Aug-17 18:31N 37°44' W 122°20'0 0.0
2014-Aug-17 17:31N 37°44' W 122°20'0 0.0
2014-Aug-17 16:31N 37°44' W 122°20'0 0.0
2014-Aug-17 15:31N 37°44' W 122°20'0 0.2
2014-Aug-17 14:31N 37°44' W 122°20'0 0.1
2014-Aug-17 13:31N 37°44' W 122°20'0 0.1
2014-Aug-17 12:31N 37°44' W 122°20'0 0.0
2014-Aug-17 11:31N 37°44' W 122°20'0 0.0
2014-Aug-17 10:31N 37°44' W 122°20'0 0.0
2014-Aug-17 09:31N 37°44' W 122°20'0 0.1
2014-Aug-17 08:31N 37°44' W 122°20'0 0.2
2014-Aug-17 07:28N 37°44' W 122°20'0 0.1
2014-Aug-17 06:31N 37°44' W 122°20'0 0.0
2014-Aug-17 05:31N 37°44' W 122°20'0 0.0
2014-Aug-17 04:31N 37°44' W 122°20'0 0.0
2014-Aug-17 03:31N 37°44' W 122°20'0 0.0
2014-Aug-17 02:31N 37°44' W 122°20'0 0.2
2014-Aug-17 01:31N 37°44' W 122°20'0 0.1
2014-Aug-17 00:31N 37°44' W 122°20'0 0.1
2014-Aug-16 23:31N 37°44' W 122°20'0 0.0
2014-Aug-16 22:28N 37°44' W 122°20'0 0.0
2014-Aug-16 21:31N 37°44' W 122°20'0 0.0
2014-Aug-16 20:31N 37°44' W 122°20'0 0.0
2014-Aug-16 19:31N 37°44' W 122°20'0 0.2
2014-Aug-16 18:31N 37°44' W 122°20'0 0.0
2014-Aug-16 17:31N 37°44' W 122°20'0 0.0
2014-Aug-16 16:31N 37°44' W 122°20'0 0.0
2014-Aug-16 15:31N 37°44' W 122°20'0 0.0
2014-Aug-16 14:31N 37°44' W 122°20'0 0.2
2014-Aug-16 13:31N 37°44' W 122°20'0 0.1
2014-Aug-16 12:31N 37°44' W 122°20'0 0.1
2014-Aug-16 11:31N 37°44' W 122°20'0 0.0
2014-Aug-16 10:31N 37°44' W 122°20'0 0.0
2014-Aug-16 09:31N 37°44' W 122°20'0 0.0
2014-Aug-16 08:28N 37°44' W 122°20'0 0.0
2014-Aug-16 07:31N 37°44' W 122°20'0 0.2
2014-Aug-16 06:31N 37°44' W 122°20'0 0.1
2014-Aug-16 05:31N 37°44' W 122°20'0 0.0
2014-Aug-16 04:31N 37°44' W 122°20'0 0.0
2014-Aug-16 03:31N 37°44' W 122°20'0 0.0
2014-Aug-16 02:31N 37°44' W 122°20'0 0.0
2014-Aug-16 01:28N 37°44' W 122°20'0 0.2
2014-Aug-16 00:31N 37°44' W 122°20'0 0.1
2014-Aug-15 23:31N 37°44' W 122°20'0 0.0
2014-Aug-15 22:28N 37°44' W 122°20'0 0.0
2014-Aug-15 21:31N 37°44' W 122°20'0 0.0
2014-Aug-15 20:28N 37°44' W 122°20'0 0.0
2014-Aug-15 19:31N 37°44' W 122°20'0 0.0
2014-Aug-15 18:31N 37°44' W 122°20'0 0.2
2014-Aug-15 17:31N 37°44' W 122°20'0 0.0
2014-Aug-15 16:31N 37°44' W 122°20'0 0.0
2014-Aug-15 15:31N 37°44' W 122°20'0 0.0
2014-Aug-15 14:31N 37°44' W 122°20'0 0.0
2014-Aug-15 13:31N 37°44' W 122°20'0 0.1
2014-Aug-15 12:31N 37°44' W 122°20'0 0.2
2014-Aug-15 11:31N 37°44' W 122°20'0 0.1
2014-Aug-15 10:31N 37°44' W 122°20'0 0.0
2014-Aug-15 09:31N 37°44' W 122°20'0 0.0
2014-Aug-15 08:31N 37°44' W 122°20'0 0.0
2014-Aug-15 07:31N 37°44' W 122°20'  
Track history (hours):
 
Tides and Currents Weather Stations Pressure Air Temp Water Temp Dewpoint Dewpoint Depression Visibility Wind Speed Wind Dir Waves Ship Positions

Overseas Luzon

Last reported at 2014-Aug-25 06:33 UTC. Time now 2014-Sep-23 22:21 UTC.
Position N 26°20' W 116°40'.
Warning: this ship's position is 29 days out of date.

Length 228 m; draft 8.2 m.

Type: Tanker. MMSI: 538002946.

Date/timePositionNaut miles runAvg speedWind from/ knotsBaromVisibWave heightAir tempDewpointWater temp
2014-Aug-25 06:33N 26°20' W 116°40'42812.9
2014-Aug-23 21:28N 31°01' W 122°47'2513.0
2014-Aug-23 19:33N 31°18' W 123°09'35311.6
2014-Aug-22 13:07N 37°11' W 123°16'2112.7
2014-Aug-22 11:28N 37°31' W 123°07'1212.6
2014-Aug-22 10:33N 37°38' W 122°56'1110.1
2014-Aug-22 09:28N 37°44' W 122°44'1111.8
2014-Aug-22 08:33N 37°48' W 122°32'9 9.2
2014-Aug-22 07:33N 37°44' W 122°21'0 0.2
2014-Aug-22 06:28N 37°44' W 122°21'0 0.1
2014-Aug-22 05:31N 37°44' W 122°21'0 0.1
2014-Aug-22 04:31N 37°44' W 122°21'2 2.4
2014-Aug-22 03:33N 37°46' W 122°21'9 9.2
2014-Aug-22 02:33N 37°55' W 122°25'0 0.1
2014-Aug-22 01:22N 37°55' W 122°25'0 0.0
2014-Aug-21 23:28N 37°55' W 122°25'0 0.0
2014-Aug-21 22:16N 37°55' W 122°25'0 0.0
2014-Aug-21 21:28N 37°55' W 122°25'0 0.0
2014-Aug-21 20:04N 37°55' W 122°25'0 0.0
2014-Aug-21 18:16N 37°55' W 122°25'0 0.0
2014-Aug-21 17:10N 37°55' W 122°25'0 0.0
2014-Aug-21 14:28N 37°55' W 122°25'0 0.0
2014-Aug-21 12:22N 37°55' W 122°25'0 0.0
2014-Aug-21 11:28N 37°55' W 122°25'0 0.0
2014-Aug-21 10:28N 37°55' W 122°25'0 0.0
2014-Aug-20 20:28N 37°55' W 122°25'0 0.0
2014-Aug-20 17:16N 37°55' W 122°25'0 0.0
2014-Aug-20 16:28N 37°55' W 122°25'0 0.0
2014-Aug-20 12:28N 37°55' W 122°25'0 0.0
2014-Aug-19 17:07N 37°55' W 122°25'0 0.0
2014-Aug-19 16:31N 37°55' W 122°25'0 0.0
2014-Aug-19 15:31N 37°55' W 122°25'0 0.0
2014-Aug-19 14:19N 37°55' W 122°25'0 0.0
2014-Aug-19 13:25N 37°55' W 122°25'0 0.0
2014-Aug-19 12:31N 37°55' W 122°25'0 0.0
2014-Aug-19 11:31N 37°55' W 122°25'0 0.0
2014-Aug-19 10:19N 37°55' W 122°25'0 0.0
2014-Aug-19 09:25N 37°55' W 122°25'0 0.0
2014-Aug-19 08:25N 37°55' W 122°25'0 0.0
2014-Aug-19 07:31N 37°55' W 122°25'0 0.0
2014-Aug-19 06:31N 37°55' W 122°25'0 0.0
2014-Aug-19 05:28N 37°55' W 122°25'0 0.0
2014-Aug-19 04:31N 37°55' W 122°25'0 0.0
2014-Aug-19 03:31N 37°55' W 122°25'0 0.0
2014-Aug-19 02:31N 37°55' W 122°25'0 0.0
2014-Aug-19 01:25N 37°55' W 122°25'0 0.0
2014-Aug-19 00:28N 37°55' W 122°25'0 0.0
2014-Aug-18 23:25N 37°55' W 122°25'0 0.0
2014-Aug-18 22:25N 37°55' W 122°25'0 0.0
2014-Aug-18 21:22N 37°55' W 122°25'0 0.0
2014-Aug-18 20:31N 37°55' W 122°25'0 0.0
2014-Aug-18 19:25N 37°55' W 122°25'0 0.0
2014-Aug-18 18:25N 37°55' W 122°25'0 0.0
2014-Aug-18 17:19N 37°55' W 122°25'0 0.0
2014-Aug-18 16:31N 37°55' W 122°25'0 0.0
2014-Aug-18 15:31N 37°55' W 122°25'0 0.0
2014-Aug-18 14:31N 37°55' W 122°25'0 0.0
2014-Aug-18 13:31N 37°55' W 122°25'0 0.0
2014-Aug-18 12:28N 37°55' W 122°25'0 0.0
2014-Aug-18 11:31N 37°55' W 122°25'0 0.0
2014-Aug-18 10:28N 37°55' W 122°25'0 0.0
2014-Aug-18 09:28N 37°55' W 122°25'0 0.0
2014-Aug-18 08:28N 37°55' W 122°25'0 0.0
2014-Aug-18 07:31N 37°55' W 122°25'0 0.0
2014-Aug-18 06:28N 37°55' W 122°25'0 0.0
2014-Aug-18 05:31N 37°55' W 122°25'0 0.0
2014-Aug-18 04:31N 37°55' W 122°25'0 0.0
2014-Aug-18 03:28N 37°55' W 122°25'0 0.0
2014-Aug-18 02:31N 37°55' W 122°25'0 0.0
2014-Aug-18 01:31N 37°55' W 122°25'0 0.0
2014-Aug-18 00:04N 37°55' W 122°25'11 2.1
2014-Aug-17 18:31N 37°44' W 122°20'0 0.0
2014-Aug-17 17:31N 37°44' W 122°20'0 0.0
2014-Aug-17 16:31N 37°44' W 122°20'0 0.0
2014-Aug-17 15:31N 37°44' W 122°20'0 0.2
2014-Aug-17 14:31N 37°44' W 122°20'0 0.1
2014-Aug-17 13:31N 37°44' W 122°20'0 0.1
2014-Aug-17 12:31N 37°44' W 122°20'0 0.0
2014-Aug-17 11:31N 37°44' W 122°20'0 0.0
2014-Aug-17 10:31N 37°44' W 122°20'0 0.0
2014-Aug-17 09:31N 37°44' W 122°20'0 0.1
2014-Aug-17 08:31N 37°44' W 122°20'0 0.2
2014-Aug-17 07:28N 37°44' W 122°20'0 0.1
2014-Aug-17 06:31N 37°44' W 122°20'0 0.0
2014-Aug-17 05:31N 37°44' W 122°20'0 0.0
2014-Aug-17 04:31N 37°44' W 122°20'0 0.0
2014-Aug-17 03:31N 37°44' W 122°20'0 0.0
2014-Aug-17 02:31N 37°44' W 122°20'0 0.2
2014-Aug-17 01:31N 37°44' W 122°20'0 0.1
2014-Aug-17 00:31N 37°44' W 122°20'0 0.1
2014-Aug-16 23:31N 37°44' W 122°20'0 0.0
2014-Aug-16 22:28N 37°44' W 122°20'0 0.0
2014-Aug-16 21:31N 37°44' W 122°20'0 0.0
2014-Aug-16 20:31N 37°44' W 122°20'0 0.0
2014-Aug-16 19:31N 37°44' W 122°20'0 0.2
2014-Aug-16 18:31N 37°44' W 122°20'0 0.0
2014-Aug-16 17:31N 37°44' W 122°20'0 0.0
2014-Aug-16 16:31N 37°44' W 122°20'0 0.0
2014-Aug-16 15:31N 37°44' W 122°20'0 0.0
2014-Aug-16 14:31N 37°44' W 122°20'0 0.2
2014-Aug-16 13:31N 37°44' W 122°20'0 0.1
2014-Aug-16 12:31N 37°44' W 122°20'0 0.1
2014-Aug-16 11:31N 37°44' W 122°20'0 0.0
2014-Aug-16 10:31N 37°44' W 122°20'0 0.0
2014-Aug-16 09:31N 37°44' W 122°20'0 0.0
2014-Aug-16 08:28N 37°44' W 122°20'0 0.0
2014-Aug-16 07:31N 37°44' W 122°20'0 0.2
2014-Aug-16 06:31N 37°44' W 122°20'0 0.1
2014-Aug-16 05:31N 37°44' W 122°20'0 0.0
2014-Aug-16 04:31N 37°44' W 122°20'0 0.0
2014-Aug-16 03:31N 37°44' W 122°20'0 0.0
2014-Aug-16 02:31N 37°44' W 122°20'0 0.0
2014-Aug-16 01:28N 37°44' W 122°20'0 0.2
2014-Aug-16 00:31N 37°44' W 122°20'0 0.1
2014-Aug-15 23:31N 37°44' W 122°20'0 0.0
2014-Aug-15 22:28N 37°44' W 122°20'0 0.0
2014-Aug-15 21:31N 37°44' W 122°20'0 0.0
2014-Aug-15 20:28N 37°44' W 122°20'0 0.0
2014-Aug-15 19:31N 37°44' W 122°20'0 0.0
2014-Aug-15 18:31N 37°44' W 122°20'0 0.2
2014-Aug-15 17:31N 37°44' W 122°20'0 0.0
2014-Aug-15 16:31N 37°44' W 122°20'0 0.0
2014-Aug-15 15:31N 37°44' W 122°20'0 0.0
2014-Aug-15 14:31N 37°44' W 122°20'0 0.0
2014-Aug-15 13:31N 37°44' W 122°20'0 0.1
2014-Aug-15 12:31N 37°44' W 122°20'0 0.2
2014-Aug-15 11:31N 37°44' W 122°20'0 0.1
2014-Aug-15 10:31N 37°44' W 122°20'0 0.0
2014-Aug-15 09:31N 37°44' W 122°20'0 0.0
2014-Aug-15 08:31N 37°44' W 122°20'0 0.0
2014-Aug-15 07:31N 37°44' W 122°20'  

Dump ship's entire track history